Time;durP1;ratioP1;P1;durP2;ratioP2;P2;SDS_P1;SDS_P2;PMS_P1;PMS_P2;Temp;Humidity;BMP_temperature;BMP_pressure;BME280_temperature;BME280_humidity;BME280_pressure;Samples;Min_cycle;Max_cycle;Signal;HPM_P1;HPM_P2
2023/07/28 00:00:56;;;;;;;2.20;1.40;;;;;;;12.08;85.26;98229.79;106011;1251;74237;-24
2023/07/28 00:03:22;;;;;;;1.90;1.50;;;;;;;12.52;82.89;98227.79;106058;1251;72702;-23
2023/07/28 00:05:49;;;;;;;3.50;1.50;;;;;;;12.50;82.38;98225.15;105808;1251;61064;-24
2023/07/28 00:08:16;;;;;;;6.70;2.00;;;;;;;12.31;82.78;98228.64;105920;1254;61091;-24
2023/07/28 00:10:43;;;;;;;4.60;1.90;;;;;;;12.00;83.97;98226.76;105874;1251;74392;-24
2023/07/28 00:13:09;;;;;;;2.80;1.40;;;;;;;11.78;85.49;98226.48;105836;1257;74298;-24
2023/07/28 00:15:36;;;;;;;4.90;2.30;;;;;;;12.10;85.17;98225.69;105925;1251;72598;-24
2023/07/28 00:18:03;;;;;;;5.50;2.10;;;;;;;12.47;83.23;98223.90;105749;1252;61197;-23
2023/07/28 00:20:30;;;;;;;9.10;2.20;;;;;;;12.41;82.80;98224.89;105943;1254;61092;-23
2023/07/28 00:22:57;;;;;;;3.00;1.80;;;;;;;12.16;83.70;98220.77;105941;1251;73880;-24
2023/07/28 00:25:24;;;;;;;3.60;1.70;;;;;;;11.94;84.65;98225.39;105923;1253;74277;-24
2023/07/28 00:27:51;;;;;;;3.80;1.60;;;;;;;11.74;85.87;98226.49;105945;1251;72685;-24
2023/07/28 00:30:19;;;;;;;3.00;1.60;;;;;;;12.03;85.78;98228.15;106026;1251;60983;-24
2023/07/28 00:32:47;;;;;;;6.20;1.70;;;;;;;12.30;83.74;98225.36;105908;1257;61062;-24
2023/07/28 00:35:14;;;;;;;4.80;1.90;;;;;;;12.24;83.55;98226.61;105909;1252;73803;-23
2023/07/28 00:37:41;;;;;;;5.10;1.80;;;;;;;12.08;84.28;98225.05;105580;1254;74310;-23
2023/07/28 00:40:09;;;;;;;2.40;1.80;;;;;;;11.89;84.95;98228.86;105924;1251;72665;-23
2023/07/28 00:42:35;;;;;;;1.50;1.20;;;;;;;11.73;85.83;98230.82;105829;1255;61762;-23
2023/07/28 00:45:04;;;;;;;2.60;1.60;;;;;;;12.16;85.26;98232.46;105717;1257;61479;-23
2023/07/28 00:47:32;;;;;;;3.10;2.10;;;;;;;12.55;82.96;98231.14;105556;1253;73958;-23
2023/07/28 00:49:59;;;;;;;4.00;1.70;;;;;;;12.54;82.22;98227.19;105809;1253;74356;-23
2023/07/28 00:52:26;;;;;;;4.00;2.10;;;;;;;12.31;82.84;98233.56;105798;1257;72503;-23
2023/07/28 00:54:52;;;;;;;4.10;2.00;;;;;;;12.04;84.03;98234.49;105621;1255;61052;-23
2023/07/28 00:57:19;;;;;;;1.50;1.20;;;;;;;11.87;84.99;98232.90;105763;1254;61122;-23
2023/07/28 00:59:46;;;;;;;3.00;1.50;;;;;;;12.24;84.68;98236.03;105969;1251;73750;-23
2023/07/28 01:02:18;;;;;;;4.20;1.80;;;;;;;12.54;82.46;98235.93;105927;1251;74102;-23
2023/07/28 01:04:45;;;;;;;2.10;1.40;;;;;;;12.49;82.22;98237.02;105562;1251;73065;-23
2023/07/28 01:07:32;;;;;;;3.40;1.70;;;;;;;12.27;82.81;98238.11;105892;1251;61133;-23
2023/07/28 01:10:05;;;;;;;3.40;1.80;;;;;;;11.99;84.17;98242.31;105978;1257;61112;-23
2023/07/28 01:12:32;;;;;;;2.10;1.10;;;;;;;11.83;84.99;98242.52;105742;1251;73630;-23
2023/07/28 01:14:59;;;;;;;3.20;1.30;;;;;;;12.20;84.82;98243.35;106002;1251;74402;-23
2023/07/28 01:17:26;;;;;;;2.40;1.70;;;;;;;12.61;82.17;98243.02;105914;1252;72496;-23
2023/07/28 01:19:53;;;;;;;4.80;1.50;;;;;;;12.51;81.77;98236.25;105618;1255;61183;-23
2023/07/28 01:22:39;;;;;;;3.00;1.70;;;;;;;12.28;82.67;98239.28;105668;1256;61131;-22
2023/07/28 01:25:07;;;;;;;2.30;1.50;;;;;;;11.95;83.86;98242.52;105748;1251;73929;-23
2023/07/28 01:27:35;;;;;;;2.00;1.10;;;;;;;11.72;85.04;98244.76;105764;1257;74341;-22
2023/07/28 01:30:03;;;;;;;4.40;1.30;;;;;;;12.06;84.71;98247.41;105626;1260;72825;-23
2023/07/28 01:32:30;;;;;;;1.90;1.30;;;;;;;12.40;82.69;98243.80;105756;1251;61074;-22
2023/07/28 01:34:57;;;;;;;1.60;1.20;;;;;;;12.32;82.25;98248.96;105864;1257;61185;-23
2023/07/28 01:37:24;;;;;;;3.20;1.40;;;;;;;12.11;82.76;98245.46;105938;1251;73781;-23
2023/07/28 01:39:51;;;;;;;2.20;1.50;;;;;;;11.81;83.37;98246.63;105963;1251;73310;-22
2023/07/28 01:42:18;;;;;;;2.40;1.20;;;;;;;11.56;84.58;98245.88;105665;1254;72556;-22
2023/07/28 01:44:44;;;;;;;1.80;1.20;;;;;;;11.78;84.96;98245.19;105894;1253;61061;-22
2023/07/28 01:47:11;;;;;;;3.30;1.90;;;;;;;12.21;83.17;98243.29;105488;1259;61179;-23
2023/07/28 01:49:38;;;;;;;2.50;1.40;;;;;;;12.18;82.46;98240.45;105952;1251;73801;-23
2023/07/28 01:52:05;;;;;;;3.10;1.70;;;;;;;11.91;82.66;98241.90;105816;1254;74300;-23
2023/07/28 01:54:32;;;;;;;2.30;1.40;;;;;;;11.63;83.47;98240.48;105903;1253;72675;-22
2023/07/28 01:56:59;;;;;;;1.60;1.20;;;;;;;11.36;84.54;98241.36;105904;1254;61053;-23
2023/07/28 01:59:25;;;;;;;1.20;1.00;;;;;;;11.14;85.75;98241.04;105773;1258;61169;-23
2023/07/28 02:01:52;;;;;;;3.50;1.00;;;;;;;11.53;85.67;98240.41;105891;1252;73805;-23
2023/07/28 02:04:19;;;;;;;3.00;1.40;;;;;;;11.92;84.09;98243.52;105790;1251;74780;-22
2023/07/28 02:06:46;;;;;;;4.10;1.40;;;;;;;11.88;83.18;98240.97;105936;1254;72456;-23
2023/07/28 02:09:13;;;;;;;1.80;1.50;;;;;;;11.67;83.43;98237.69;105854;1257;61051;-22
2023/07/28 02:11:40;;;;;;;2.30;1.50;;;;;;;11.42;84.42;98239.33;105935;1251;61218;-24
2023/07/28 02:14:07;;;;;;;4.40;1.30;;;;;;;11.19;85.69;98236.59;105753;1260;72618;-22
2023/07/28 02:16:33;;;;;;;1.70;1.40;;;;;;;11.52;85.47;98236.70;105927;1255;74120;-23
2023/07/28 02:19:01;;;;;;;1.90;1.40;;;;;;;11.89;83.60;98241.89;105895;1253;72650;-23
2023/07/28 02:21:28;;;;;;;4.10;1.70;;;;;;;11.87;82.91;98239.69;105685;1251;60993;-22
2023/07/28 02:23:57;;;;;;;2.00;1.40;;;;;;;11.67;83.42;98239.38;105847;1254;61251;-23
2023/07/28 02:26:24;;;;;;;2.70;1.60;;;;;;;11.46;84.15;98239.88;105736;1256;73858;-22
2023/07/28 02:28:51;;;;;;;2.20;1.10;;;;;;;11.26;85.17;98243.88;105949;1254;74158;-23
2023/07/28 02:31:17;;;;;;;2.10;1.20;;;;;;;11.60;85.29;98249.11;105789;1254;72527;-22
2023/07/28 02:33:44;;;;;;;1.30;1.20;;;;;;;12.04;83.32;98252.66;105774;1256;61146;-23
2023/07/28 02:36:11;;;;;;;2.70;1.50;;;;;;;11.97;82.40;98255.99;105602;1251;61176;-23
2023/07/28 02:38:38;;;;;;;5.80;1.60;;;;;;;11.76;82.91;98256.38;105919;1251;72801;-22
2023/07/28 02:41:05;;;;;;;3.10;1.60;;;;;;;11.50;83.53;98256.27;105952;1255;74447;-22
2023/07/28 02:43:32;;;;;;;2.50;1.00;;;;;;;11.27;84.77;98253.48;105961;1252;72622;-22
2023/07/28 02:46:00;;;;;;;1.80;1.30;;;;;;;11.61;84.86;98261.36;105856;1252;61115;-23
2023/07/28 02:48:27;;;;;;;1.80;1.50;;;;;;;11.99;83.39;98258.88;105571;1260;61141;-23
2023/07/28 02:50:54;;;;;;;2.80;1.80;;;;;;;11.98;82.82;98260.17;105858;1256;73710;-23
2023/07/28 02:53:21;;;;;;;2.40;1.60;;;;;;;11.79;83.22;98266.02;105854;1254;74185;-22
2023/07/28 02:55:48;;;;;;;2.70;1.80;;;;;;;11.56;84.07;98270.48;105721;1255;72312;-22
2023/07/28 02:58:15;;;;;;;2.20;1.20;;;;;;;11.38;85.29;98271.71;105937;1254;61619;-22
2023/07/28 03:00:43;;;;;;;2.90;1.30;;;;;;;11.75;85.10;98278.27;106004;1256;61170;-22
2023/07/28 03:03:10;;;;;;;7.80;1.80;;;;;;;12.27;83.11;98280.79;105767;1251;73794;-22
2023/07/28 03:05:39;;;;;;;2.30;1.70;;;;;;;12.47;81.60;98286.27;105907;1257;74024;-22
2023/07/28 03:08:24;;;;;;;4.40;1.80;;;;;;;12.37;81.60;98292.81;105742;1251;72650;-22
2023/07/28 03:10:58;;;;;;;2.30;1.60;;;;;;;12.30;81.97;98294.25;105776;1257;61120;-22
2023/07/28 03:13:25;;;;;;;1.70;1.10;;;;;;;12.28;82.20;98296.55;105329;1259;61152;-22
2023/07/28 03:15:52;;;;;;;1.80;1.20;;;;;;;12.88;80.91;98297.56;105882;1254;73813;-22
2023/07/28 03:18:21;;;;;;;4.80;1.40;;;;;;;13.53;78.02;98295.23;105981;1255;74208;-22
2023/07/28 03:20:47;;;;;;;1.90;1.50;;;;;;;13.59;76.56;98295.18;105628;1257;72446;-22
2023/07/28 03:23:14;;;;;;;2.30;1.60;;;;;;;13.44;76.73;98298.09;105816;1257;61207;-23
2023/07/28 03:25:41;;;;;;;1.80;1.50;;;;;;;13.28;77.74;98299.98;105905;1256;61153;-24
2023/07/28 03:28:08;;;;;;;3.30;1.70;;;;;;;13.17;78.12;98301.41;106019;1254;73756;-24
2023/07/28 03:30:35;;;;;;;3.60;1.00;;;;;;;13.10;78.69;98305.86;105965;1257;74109;-24
2023/07/28 03:33:02;;;;;;;1.60;1.20;;;;;;;13.56;77.60;98302.95;105738;1259;72496;-21
2023/07/28 03:35:29;;;;;;;3.30;1.60;;;;;;;14.12;75.40;98298.48;105900;1256;61517;-23
2023/07/28 03:38:08;;;;;;;2.50;1.50;;;;;;;14.21;74.40;98303.30;105831;1255;61102;-22
2023/07/28 03:40:35;;;;;;;2.60;1.50;;;;;;;14.17;74.72;98302.79;105927;1251;73617;-23
2023/07/28 03:43:02;;;;;;;4.60;1.80;;;;;;;14.09;75.14;98306.09;105749;1256;72936;-22
2023/07/28 03:45:29;;;;;;;2.60;1.80;;;;;;;13.99;75.41;98309.48;105877;1255;72593;-23
2023/07/28 03:47:56;;;;;;;2.00;1.10;;;;;;;13.90;76.17;98310.94;105663;1252;62614;-23
2023/07/28 03:50:24;;;;;;;1.80;1.10;;;;;;;14.35;75.52;98312.52;105851;1265;61100;-22
2023/07/28 03:52:51;;;;;;;3.60;1.50;;;;;;;14.85;72.91;98310.30;105683;1257;73683;-23
2023/07/28 03:55:18;;;;;;;2.20;1.50;;;;;;;14.99;72.10;98315.70;105719;1257;74402;-23
2023/07/28 03:57:45;;;;;;;2.30;1.60;;;;;;;14.92;72.39;98314.59;105657;1254;72629;-23
2023/07/28 04:00:13;;;;;;;3.30;2.00;;;;;;;14.84;72.45;98315.45;105648;1256;61037;-23
2023/07/28 04:02:40;;;;;;;3.40;1.80;;;;;;;14.75;73.35;98315.06;105585;1258;61578;-23
2023/07/28 04:05:08;;;;;;;2.30;1.60;;;;;;;14.70;73.57;98312.77;105793;1256;73881;-23
2023/07/28 04:07:35;;;;;;;2.20;1.30;;;;;;;14.63;74.13;98311.95;105989;1257;74237;-23
2023/07/28 04:10:02;;;;;;;6.10;1.30;;;;;;;15.18;72.47;98316.45;105819;1256;72760;-23
2023/07/28 04:12:29;;;;;;;2.50;1.60;;;;;;;15.69;70.43;98316.41;105885;1255;61232;-23
2023/07/28 04:14:56;;;;;;;5.40;1.70;;;;;;;15.81;69.31;98310.70;105907;1254;61722;-23
2023/07/28 04:17:24;;;;;;;7.00;1.70;;;;;;;15.69;69.82;98309.98;105890;1257;73849;-22
2023/07/28 04:19:51;;;;;;;3.20;1.80;;;;;;;15.59;69.88;98311.51;105925;1264;74304;-23
2023/07/28 04:22:21;;;;;;;3.50;2.10;;;;;;;15.54;70.33;98314.61;105698;1256;73032;-23
2023/07/28 04:24:49;;;;;;;5.70;2.20;;;;;;;15.35;70.56;98313.14;105700;1261;61172;-23
2023/07/28 04:27:16;;;;;;;3.40;2.10;;;;;;;15.30;70.80;98315.10;105674;1260;61096;-22
2023/07/28 04:29:43;;;;;;;3.80;2.10;;;;;;;15.27;71.12;98312.96;105936;1254;73854;-22
2023/07/28 04:32:11;;;;;;;1.70;1.50;;;;;;;15.24;71.50;98309.23;106000;1254;74279;-22
2023/07/28 04:34:38;;;;;;;3.30;1.50;;;;;;;15.80;69.84;98304.95;105660;1255;72777;-23
2023/07/28 04:37:13;;;;;;;3.20;1.70;;;;;;;16.41;68.05;98305.24;105751;1257;61488;-23
2023/07/28 04:39:58;;;;;;;2.00;1.60;;;;;;;16.42;66.81;98307.42;105997;1253;61140;-23
2023/07/28 04:42:29;;;;;;;7.90;2.20;;;;;;;16.46;66.96;98302.71;105886;1257;73710;-23
2023/07/28 04:44:56;;;;;;;4.40;1.90;;;;;;;16.22;67.11;98301.85;105904;1257;74337;-23
2023/07/28 04:47:23;;;;;;;4.50;2.10;;;;;;;16.12;67.83;98299.46;105861;1255;72989;-22
2023/07/28 04:49:50;;;;;;;5.10;1.90;;;;;;;16.05;67.86;98295.80;105966;1254;61082;-23
2023/07/28 04:52:43;;;;;;;3.20;1.90;;;;;;;16.12;68.76;98291.84;105847;1257;61908;-23
2023/07/28 04:55:35;;;;;;;1.80;1.50;;;;;;;16.15;67.28;98289.88;105843;1255;75445;-23
2023/07/28 04:58:02;;;;;;;9.20;2.20;;;;;;;16.09;67.58;98294.64;105886;1258;75828;-22
2023/07/28 05:00:38;;;;;;;3.70;1.90;;;;;;;16.10;68.14;98295.48;105896;1257;73902;-23
2023/07/28 05:03:06;;;;;;;4.00;2.00;;;;;;;15.89;68.33;98295.63;105945;1251;61739;-23
2023/07/28 05:05:35;;;;;;;4.60;2.00;;;;;;;15.81;68.38;98295.71;105904;1257;61051;-23
2023/07/28 05:08:04;;;;;;;3.90;1.60;;;;;;;15.80;68.89;98291.81;105993;1254;75170;-22
2023/07/28 05:10:31;;;;;;;2.70;2.10;;;;;;;15.85;68.96;98291.57;105988;1255;75950;-23
2023/07/28 05:12:59;;;;;;;3.80;2.10;;;;;;;15.87;68.80;98292.20;105748;1257;74078;-22
2023/07/28 05:15:27;;;;;;;3.40;1.90;;;;;;;16.09;68.86;98295.33;105963;1252;61696;-22
2023/07/28 05:17:54;;;;;;;2.50;1.80;;;;;;;16.25;68.74;98295.40;105935;1266;61744;-22
2023/07/28 05:20:37;;;;;;;7.90;1.90;;;;;;;16.01;67.33;98290.40;105951;1256;75580;-22
2023/07/28 05:23:16;;;;;;;5.00;2.00;;;;;;;16.09;68.57;98296.54;105971;1254;75807;-22
2023/07/28 05:25:43;;;;;;;2.50;1.50;;;;;;;16.27;68.05;98298.17;105833;1256;74179;-22
2023/07/28 05:28:11;;;;;;;5.70;1.70;;;;;;;16.84;65.08;98297.17;105944;1253;61764;-22
2023/07/28 05:30:39;;;;;;;3.70;1.50;;;;;;;17.45;63.97;98291.65;105968;1252;61148;-24
2023/07/28 05:33:07;;;;;;;2.50;1.70;;;;;;;17.75;63.61;98289.11;105693;1254;75254;-23
2023/07/28 05:35:47;;;;;;;3.10;1.60;;;;;;;17.77;62.38;98291.31;105743;1257;75979;-23
2023/07/28 05:38:14;;;;;;;2.40;1.90;;;;;;;17.64;63.40;98291.65;105891;1254;73995;-23
2023/07/28 05:40:42;;;;;;;3.00;1.70;;;;;;;17.59;64.58;98291.51;105986;1251;62138;-22
2023/07/28 05:43:09;;;;;;;7.20;1.90;;;;;;;17.56;64.39;98291.55;105939;1257;61751;-24
2023/07/28 05:45:37;;;;;;;5.20;1.80;;;;;;;17.63;64.62;98291.30;105967;1254;75365;-23
2023/07/28 05:48:05;;;;;;;8.80;1.80;;;;;;;17.48;62.66;98288.11;105905;1258;75909;-23
2023/07/28 05:50:33;;;;;;;3.10;1.70;;;;;;;17.24;62.99;98291.05;105615;1263;73195;-23
2023/07/28 05:53:00;;;;;;;7.50;2.00;;;;;;;17.26;63.86;98290.65;105683;1255;61744;-24
2023/07/28 05:55:28;;;;;;;2.60;1.70;;;;;;;17.14;64.58;98290.94;105782;1257;61652;-23
2023/07/28 05:57:58;;;;;;;3.60;1.20;;;;;;;17.08;64.75;98288.11;105787;1264;75169;-23
2023/07/28 06:00:26;;;;;;;3.10;1.40;;;;;;;17.03;64.56;98293.94;105934;1255;75795;-23
2023/07/28 06:02:53;;;;;;;2.30;1.60;;;;;;;17.09;65.29;98293.23;105979;1257;74277;-23
2023/07/28 06:05:36;;;;;;;3.00;1.50;;;;;;;17.10;64.39;98288.22;105672;1254;61809;-23
2023/07/28 06:08:03;;;;;;;23.80;2.20;;;;;;;17.10;64.47;98289.77;105603;1254;61714;-23
2023/07/28 06:10:31;;;;;;;3.60;1.70;;;;;;;17.16;66.29;98290.60;106007;1252;73963;-23
2023/07/28 06:12:59;;;;;;;1.90;1.70;;;;;;;17.23;65.07;98284.87;105864;1251;76041;-22
2023/07/28 06:15:34;;;;;;;5.90;2.00;;;;;;;17.11;64.59;98278.61;105866;1254;74322;-23
2023/07/28 06:18:02;;;;;;;3.10;2.00;;;;;;;17.04;63.72;98282.09;105747;1253;61821;-23
2023/07/28 06:20:30;;;;;;;3.60;1.90;;;;;;;17.05;64.24;98285.30;105887;1257;61718;-23
2023/07/28 06:22:58;;;;;;;4.80;1.90;;;;;;;17.18;64.27;98281.77;105938;1254;74997;-23
2023/07/28 06:25:26;;;;;;;2.50;1.70;;;;;;;17.31;62.97;98285.13;105911;1251;75775;-22
2023/07/28 06:27:54;;;;;;;2.70;1.80;;;;;;;17.37;62.67;98290.37;105524;1255;73195;-23
2023/07/28 06:30:22;;;;;;;2.70;1.90;;;;;;;17.43;63.18;98295.23;105706;1258;61776;-23
2023/07/28 06:32:49;;;;;;;2.90;1.60;;;;;;;17.61;64.46;98295.11;105905;1256;61840;-23
2023/07/28 06:35:17;;;;;;;3.30;1.70;;;;;;;17.81;63.70;98295.20;105876;1254;75272;-23
2023/07/28 06:37:45;;;;;;;3.90;1.40;;;;;;;17.88;64.17;98293.51;105805;1259;75951;-22
2023/07/28 06:40:12;;;;;;;3.20;1.60;;;;;;;18.01;62.34;98293.87;105881;1257;74285;-22
2023/07/28 06:42:40;;;;;;;3.40;1.90;;;;;;;17.98;62.09;98293.44;105645;1254;61240;-22
2023/07/28 06:45:08;;;;;;;2.80;1.70;;;;;;;18.04;62.37;98299.09;105895;1253;61055;-22
2023/07/28 06:47:35;;;;;;;2.90;1.60;;;;;;;18.18;61.98;98298.28;105895;1256;73898;-22
2023/07/28 06:50:02;;;;;;;35.20;3.20;;;;;;;18.25;61.38;98295.75;105995;1251;74122;-22
2023/07/28 06:52:29;;;;;;;2.60;1.60;;;;;;;18.30;61.97;98292.64;105969;1254;72714;-22
2023/07/28 06:54:56;;;;;;;3.00;1.60;;;;;;;18.34;62.18;98294.29;105942;1260;61165;-22
2023/07/28 06:57:23;;;;;;;4.50;1.40;;;;;;;18.36;61.63;98294.22;105969;1254;61093;-22
2023/07/28 06:59:51;;;;;;;1.80;1.30;;;;;;;18.40;59.82;98289.63;105695;1251;73715;-23
2023/07/28 07:02:18;;;;;;;2.30;1.50;;;;;;;18.48;59.68;98295.95;105833;1254;74174;-22
2023/07/28 07:04:45;;;;;;;2.10;1.60;;;;;;;18.45;58.50;98289.04;105910;1253;72615;-22
2023/07/28 07:07:12;;;;;;;2.10;1.30;;;;;;;18.49;59.16;98292.08;105743;1255;61110;-23
2023/07/28 07:09:40;;;;;;;3.30;1.50;;;;;;;18.61;60.87;98293.70;105950;1254;61268;-22
2023/07/28 07:12:10;;;;;;;2.00;1.40;;;;;;;18.80;59.61;98291.52;105805;1257;74509;-23
2023/07/28 07:14:37;;;;;;;3.10;1.50;;;;;;;18.90;57.59;98296.02;105651;1257;73310;-22
2023/07/28 07:17:07;;;;;;;2.60;1.50;;;;;;;18.89;57.04;98293.82;105987;1258;72664;-23
2023/07/28 07:19:34;;;;;;;2.60;1.30;;;;;;;19.07;58.29;98296.83;105690;1256;61230;-23
2023/07/28 07:22:01;;;;;;;2.90;1.30;;;;;;;19.15;55.55;98291.29;105928;1256;61128;-22
2023/07/28 07:24:28;;;;;;;3.00;1.40;;;;;;;19.19;56.35;98291.14;105748;1251;74451;-23
2023/07/28 07:26:55;;;;;;;1.90;1.20;;;;;;;19.37;56.96;98293.92;106002;1254;74365;-23
2023/07/28 07:29:22;;;;;;;1.90;1.10;;;;;;;19.51;55.38;98293.05;105995;1251;73029;-23
2023/07/28 07:31:54;;;;;;;1.70;1.00;;;;;;;19.70;56.31;98298.88;105934;1251;61061;-23
2023/07/28 07:34:22;;;;;;;2.20;1.30;;;;;;;19.98;56.06;98296.45;105996;1257;61117;-23
2023/07/28 07:36:49;;;;;;;9.30;1.40;;;;;;;20.06;52.42;98295.69;105747;1251;73703;-22
2023/07/28 07:39:16;;;;;;;4.60;1.30;;;;;;;19.99;52.25;98292.02;105689;1257;74300;-23
2023/07/28 07:41:43;;;;;;;2.90;1.30;;;;;;;20.08;53.16;98294.21;105964;1252;72605;-22
2023/07/28 07:44:10;;;;;;;1.20;1.10;;;;;;;20.05;52.01;98297.06;105963;1251;61175;-23
2023/07/28 07:46:37;;;;;;;3.20;1.10;;;;;;;20.06;51.77;98300.39;105978;1254;61155;-22
2023/07/28 07:49:05;;;;;;;3.50;1.20;;;;;;;20.18;52.74;98303.59;106014;1254;73553;-22
2023/07/28 07:51:33;;;;;;;2.20;1.00;;;;;;;20.45;53.47;98304.75;106013;1251;74401;-22
2023/07/28 07:54:01;;;;;;;2.10;1.00;;;;;;;20.61;50.21;98306.25;105951;1254;72648;-22
2023/07/28 07:56:28;;;;;;;1.30;1.10;;;;;;;20.72;50.32;98307.00;105949;1251;61279;-22
2023/07/28 07:58:55;;;;;;;7.70;1.20;;;;;;;20.78;49.76;98307.92;105938;1251;61137;-22
2023/07/28 08:01:22;;;;;;;2.00;0.90;;;;;;;20.79;49.29;98309.67;105967;1254;73803;-22
2023/07/28 08:03:49;;;;;;;1.20;1.10;;;;;;;20.88;48.52;98310.87;105807;1254;74585;-24
2023/07/28 08:06:17;;;;;;;1.20;1.10;;;;;;;21.02;47.46;98314.17;105819;1254;72607;-24
2023/07/28 08:08:45;;;;;;;1.70;0.90;;;;;;;21.14;49.80;98314.17;105750;1253;61130;-24
2023/07/28 08:11:12;;;;;;;1.90;1.00;;;;;;;21.32;48.80;98309.90;105663;1251;62074;-24
2023/07/28 08:13:39;;;;;;;2.10;1.30;;;;;;;21.39;46.91;98308.48;105763;1255;74368;-24
2023/07/28 08:16:06;;;;;;;1.80;1.00;;;;;;;21.24;46.45;98306.29;105913;1256;74350;-24
2023/07/28 08:18:33;;;;;;;1.70;1.10;;;;;;;21.33;47.44;98305.05;105986;1254;72649;-21
2023/07/28 08:21:00;;;;;;;1.20;1.00;;;;;;;21.57;47.41;98302.05;105955;1254;61136;-23
2023/07/28 08:23:26;;;;;;;3.30;1.00;;;;;;;21.45;47.04;98303.91;105938;1254;61627;-24
2023/07/28 08:25:53;;;;;;;22.90;1.80;;;;;;;21.42;46.37;98313.49;105833;1251;73683;-24
2023/07/28 08:28:24;;;;;;;1.20;0.90;;;;;;;21.51;46.17;98309.98;105777;1254;74296;-24
2023/07/28 08:30:56;;;;;;;1.90;1.20;;;;;;;21.70;45.82;98306.32;105937;1251;72627;-24
2023/07/28 08:33:23;;;;;;;1.80;1.20;;;;;;;21.90;46.16;98309.39;105666;1251;61080;-24
2023/07/28 08:35:50;;;;;;;1.90;1.00;;;;;;;22.05;44.61;98307.42;105874;1254;61157;-24
2023/07/28 08:38:17;;;;;;;1.70;1.20;;;;;;;22.22;45.46;98310.36;105970;1251;74669;-24
2023/07/28 08:40:45;;;;;;;6.20;1.00;;;;;;;22.26;44.08;98313.95;105821;1256;74339;-24
2023/07/28 08:43:12;;;;;;;1.30;1.00;;;;;;;22.34;44.07;98310.20;105867;1251;72665;-24
2023/07/28 08:45:39;;;;;;;5.60;0.80;;;;;;;22.36;44.08;98307.26;105951;1251;61569;-23
2023/07/28 08:48:06;;;;;;;1.50;1.10;;;;;;;22.63;43.48;98305.05;105919;1257;61137;-24
2023/07/28 08:50:33;;;;;;;8.20;1.10;;;;;;;22.76;43.15;98303.52;105951;1251;73573;-24
2023/07/28 08:53:00;;;;;;;2.60;1.30;;;;;;;22.64;43.73;98302.23;105874;1257;74312;-24
2023/07/28 08:55:27;;;;;;;4.00;1.00;;;;;;;22.69;41.16;98304.43;105871;1254;73303;-24
2023/07/28 08:57:54;;;;;;;3.60;1.30;;;;;;;22.96;43.62;98307.68;105935;1251;61055;-23
2023/07/28 09:00:21;;;;;;;1.30;1.10;;;;;;;23.17;42.07;98303.29;105869;1255;61194;-23
2023/07/28 09:02:49;;;;;;;1.30;1.00;;;;;;;23.04;40.19;98303.20;105953;1251;73547;-24
2023/07/28 09:05:20;;;;;;;1.00;0.90;;;;;;;23.05;40.94;98306.30;105699;1257;74356;-24
2023/07/28 09:07:51;;;;;;;27.00;4.50;;;;;;;22.92;40.35;98304.64;105745;1257;72501;-22
2023/07/28 09:10:18;;;;;;;6.10;1.60;;;;;;;22.96;40.85;98300.50;105880;1257;61130;-23
2023/07/28 09:12:49;;;;;;;1.40;0.90;;;;;;;22.90;40.48;98296.83;106005;1251;61170;-23
2023/07/28 09:15:16;;;;;;;46.20;3.50;;;;;;;22.87;40.78;98299.32;105655;1251;73692;-23
2023/07/28 09:17:44;;;;;;;1.60;0.80;;;;;;;23.00;40.44;98305.55;105925;1251;74301;-23
2023/07/28 09:20:15;;;;;;;2.50;1.10;;;;;;;23.32;39.55;98302.89;105638;1257;72776;-23
2023/07/28 09:22:43;;;;;;;2.00;0.90;;;;;;;23.42;40.16;98306.96;105718;1251;61237;-23
2023/07/28 09:25:14;;;;;;;12.40;1.90;;;;;;;23.36;38.93;98306.28;105743;1258;61254;-23
2023/07/28 09:27:51;;;;;;;0.90;0.80;;;;;;;23.33;40.71;98308.77;105919;1254;74238;-23
2023/07/28 09:30:19;;;;;;;7.50;0.80;;;;;;;23.13;40.64;98301.90;106003;1256;74378;-24
2023/07/28 09:32:50;;;;;;;1.60;0.90;;;;;;;23.01;41.53;98304.88;105952;1251;73257;-23
2023/07/28 09:35:18;;;;;;;6.60;1.40;;;;;;;23.22;40.69;98305.91;105726;1258;61106;-23
2023/07/28 09:37:49;;;;;;;2.60;1.00;;;;;;;23.52;40.15;98303.70;105846;1252;61058;-23
2023/07/28 09:40:18;;;;;;;1.70;1.20;;;;;;;23.85;39.70;98303.59;105630;1251;73699;-23
2023/07/28 09:42:49;;;;;;;1.10;0.80;;;;;;;23.87;40.36;98300.91;105653;1251;74334;-24
2023/07/28 09:45:19;;;;;;;2.30;0.90;;;;;;;23.07;40.90;98304.14;105500;1257;72573;-23
2023/07/28 09:48:07;;;;;;;1.10;0.90;;;;;;;22.66;40.35;98304.66;105660;1253;61203;-23
2023/07/28 09:50:36;;;;;;;1.60;1.20;;;;;;;22.93;40.01;98308.21;105624;1254;61065;-23
2023/07/28 09:53:03;;;;;;;1.20;0.90;;;;;;;23.41;39.97;98311.40;105618;1251;73834;-23
2023/07/28 09:55:30;;;;;;;1.00;0.80;;;;;;;23.43;38.38;98304.86;105886;1256;74149;-23
2023/07/28 09:57:59;;;;;;;4.40;1.10;;;;;;;23.61;38.29;98307.81;105881;1250;72698;-23
2023/07/28 10:00:26;;;;;;;1.00;0.90;;;;;;;23.99;38.23;98312.33;105795;1254;61121;-23
2023/07/28 10:02:53;;;;;;;2.10;0.90;;;;;;;24.06;36.81;98305.18;105578;1252;61103;-24
2023/07/28 10:05:20;;;;;;;2.60;1.10;;;;;;;23.44;37.89;98311.61;105710;1251;73694;-23
2023/07/28 10:07:48;;;;;;;1.20;0.90;;;;;;;22.94;38.25;98314.04;105919;1254;74300;-23
2023/07/28 10:10:16;;;;;;;1.80;1.10;;;;;;;23.16;39.38;98313.61;105602;1251;72327;-23
2023/07/28 10:12:50;;;;;;;1.50;1.00;;;;;;;23.55;38.87;98312.70;105850;1252;61132;-23
2023/07/28 10:15:19;;;;;;;2.20;0.90;;;;;;;24.08;37.74;98305.92;105682;1254;61051;-23
2023/07/28 10:17:54;;;;;;;4.70;1.10;;;;;;;24.48;36.15;98302.88;105884;1254;73854;-23
2023/07/28 10:20:41;;;;;;;1.20;1.10;;;;;;;24.72;34.50;98299.27;105739;1254;74346;-24
2023/07/28 10:23:20;;;;;;;1.80;1.20;;;;;;;24.62;36.63;98297.03;105729;1256;73279;-23
2023/07/28 10:25:55;;;;;;;1.90;1.20;;;;;;;24.71;34.33;98293.96;105580;1251;61235;-23
2023/07/28 10:28:32;;;;;;;1.40;1.00;;;;;;;24.96;35.48;98297.27;105589;1257;61149;-23
2023/07/28 10:31:00;;;;;;;1.20;1.00;;;;;;;24.92;34.96;98290.55;105786;1251;73758;-23
2023/07/28 10:33:41;;;;;;;1.30;1.00;;;;;;;24.81;35.72;98288.90;105898;1257;74781;-23
2023/07/28 10:36:35;;;;;;;5.80;1.10;;;;;;;24.68;35.78;98299.34;105702;1251;72609;-23
2023/07/28 10:39:07;;;;;;;4.10;1.00;;;;;;;24.70;36.59;98301.04;105669;1251;61096;-23
2023/07/28 10:41:37;;;;;;;1.70;1.00;;;;;;;24.97;35.82;98299.48;105950;1254;61176;-23
2023/07/28 10:44:05;;;;;;;1.30;1.10;;;;;;;24.79;36.37;98296.95;105977;1251;73831;-23
2023/07/28 10:46:34;;;;;;;2.00;1.20;;;;;;;24.51;36.10;98293.61;105931;1251;74329;-23
2023/07/28 10:49:04;;;;;;;1.60;1.20;;;;;;;24.73;36.85;98292.46;105697;1251;71668;-24
2023/07/28 10:51:33;;;;;;;31.50;1.90;;;;;;;25.10;35.92;98291.79;105652;1253;61044;-24
2023/07/28 10:54:02;;;;;;;1.90;1.20;;;;;;;25.16;34.15;98296.10;105699;1257;61197;-23
2023/07/28 10:56:31;;;;;;;1.20;0.90;;;;;;;25.00;35.37;98294.90;105972;1254;72378;-23
2023/07/28 10:59:03;;;;;;;1.70;1.10;;;;;;;25.16;36.13;98288.45;105927;1251;74318;-24
2023/07/28 11:01:35;;;;;;;1.90;1.20;;;;;;;25.41;35.02;98282.94;105806;1256;72651;-23
2023/07/28 11:04:15;;;;;;;1.30;1.20;;;;;;;25.28;34.46;98284.42;105603;1251;61017;-24
2023/07/28 11:06:47;;;;;;;2.10;1.10;;;;;;;25.29;36.13;98277.04;105692;1254;61156;-23
2023/07/28 11:09:16;;;;;;;1.70;1.10;;;;;;;25.27;36.08;98278.33;105690;1254;73681;-23
2023/07/28 11:11:43;;;;;;;1.50;1.10;;;;;;;25.09;35.48;98278.50;105637;1251;72905;-23
2023/07/28 11:14:14;;;;;;;4.10;1.20;;;;;;;25.16;35.61;98278.26;105540;1252;72346;-23
2023/07/28 11:16:41;;;;;;;1.50;1.00;;;;;;;25.02;34.34;98277.98;105394;1253;61166;-24
2023/07/28 11:19:10;;;;;;;1.80;1.30;;;;;;;24.92;35.04;98277.63;105674;1257;61095;-24
2023/07/28 11:21:38;;;;;;;1.50;1.10;;;;;;;24.82;35.23;98282.65;105662;1251;73597;-23
2023/07/28 11:24:08;;;;;;;1.30;1.10;;;;;;;25.01;35.93;98287.21;105695;1251;74413;-23
2023/07/28 11:26:35;;;;;;;2.00;1.30;;;;;;;25.06;35.36;98283.63;105655;1252;71270;-23
2023/07/28 11:29:03;;;;;;;3.50;1.00;;;;;;;25.24;34.81;98282.34;105694;1258;61092;-24
2023/07/28 11:31:33;;;;;;;1.40;1.10;;;;;;;25.21;34.63;98276.41;105592;1251;61581;-23